Sandpiper — WDG2173 — position and weather

sailwx.info

Track history (hours):
 
Tides and Currents Weather Stations Pressure Air Temp Water Temp Dewpoint Dewpoint Depression Visibility Wind Speed Wind Dir Waves Ship Positions

Sandpiper

Owner: Higman Barge Lines, Inc., Orange, TX. More information available from US FCC via Universal Licensing System and Coast Guard Vessel Documentation Center.

Last reported at 2017-Sep-20 12:20 UTC. Time now 2017-Sep-21 01:34 UTC.
Position N 29°45' W 095°06'.

Length 26 m; draft 3 m.

Type: Towing. MMSI: 367512920.

Date/timePositionNaut miles runAvg speedWind from/ knotsBaromVisibWave heightAir tempDewpointWater temp
2017-Sep-20 12:20N 29°45' W 095°06'1 0.0
2017-Sep-18 14:28N 29°46' W 095°05'0 0.0
2017-Sep-18 12:21N 29°46' W 095°05'0 0.0
2017-Sep-17 05:05N 29°46' W 095°05'0 0.0
2017-Sep-16 23:52N 29°46' W 095°05'0 0.0
2017-Sep-16 22:00N 29°46' W 095°05'4 0.4
2017-Sep-16 12:24N 29°44' W 095°09'5 0.2
2017-Sep-15 10:29N 29°43' W 095°14'1 0.8
2017-Sep-15 09:20N 29°44' W 095°13'2 5.2
2017-Sep-15 08:54N 29°45' W 095°11'3 6.9
2017-Sep-15 08:26N 29°44' W 095°08'3 7.5
2017-Sep-15 08:00N 29°46' W 095°05'1 0.1
2017-Sep-14 21:37N 29°47' W 095°05'0 3.5
2017-Sep-14 21:30N 29°47' W 095°04'2 1.0
2017-Sep-14 19:07N 29°46' W 095°06'1 3.3
2017-Sep-14 18:57N 29°45' W 095°06'1 0.5
2017-Sep-14 16:53N 29°45' W 095°07'0 0.0
2017-Sep-14 16:28N 29°45' W 095°07'0 0.0
2017-Sep-14 15:58N 29°45' W 095°07'3 2.1
2017-Sep-14 14:41N 29°47' W 095°06'1 2.8
2017-Sep-14 14:28N 29°47' W 095°05'1 1.6
2017-Sep-14 13:57N 29°46' W 095°05'1 1.1
2017-Sep-14 13:04N 29°47' W 095°06'0 2.7
2017-Sep-14 12:59N 29°47' W 095°05'1 1.5
2017-Sep-14 12:26N 29°47' W 095°04'1 0.2
2017-Sep-14 08:33N 29°46' W 095°05'0 0.3
2017-Sep-14 08:30N 29°46' W 095°05'1 1.8
2017-Sep-14 07:56N 29°45' W 095°04'2 4.9
2017-Sep-14 07:30N 29°44' W 095°03'3 6.1
2017-Sep-14 07:00N 29°42' W 094°60'4 7.6
2017-Sep-14 06:30N 29°39' W 094°58'4 7.6
2017-Sep-14 06:00N 29°35' W 094°56'4 7.8
2017-Sep-14 05:30N 29°32' W 094°54'68 4.2
2017-Sep-13 13:10N 30°03' W 093°44'1 6.0
2017-Sep-13 13:00N 30°03' W 093°43'3 5.3
2017-Sep-13 12:30N 30°04' W 093°40'3 5.1
2017-Sep-13 12:00N 30°04' W 093°37'2 4.3
2017-Sep-13 11:30N 30°04' W 093°34'2 4.1
2017-Sep-13 11:00N 30°04' W 093°32'2 4.2
2017-Sep-13 10:30N 30°04' W 093°30'2 4.2
2017-Sep-13 10:00N 30°04' W 093°27'2 4.2
2017-Sep-13 09:30N 30°04' W 093°25'2 4.2
2017-Sep-13 09:00N 30°04' W 093°22'2 3.7
2017-Sep-13 08:30N 30°04' W 093°20'2 4.2
2017-Sep-13 08:00N 30°06' W 093°19'2 3.6
2017-Sep-13 07:30N 30°05' W 093°17'1 1.5
2017-Sep-13 07:00N 30°05' W 093°17'0 0.0
2017-Sep-13 06:30N 30°05' W 093°17'1 1.5
2017-Sep-13 06:00N 30°04' W 093°16'1 3.0
2017-Sep-13 05:30N 30°02' W 093°16'2 3.5
2017-Sep-13 05:00N 30°01' W 093°14'2 3.7
2017-Sep-13 04:30N 29°60' W 093°13'1 2.4
2017-Sep-13 04:00N 29°59' W 093°12'2 4.6
2017-Sep-13 03:30N 29°57' W 093°10'2 4.4
2017-Sep-13 02:59N 29°56' W 093°08'2 4.8
2017-Sep-13 02:30N 29°56' W 093°05'3 5.0
2017-Sep-13 01:56N 29°56' W 093°02'37 4.2
2017-Sep-12 17:12N 29°50' W 092°20'1 4.3
2017-Sep-12 17:00N 29°50' W 092°19'2 3.8
2017-Sep-12 16:29N 29°49' W 092°17'2 4.1
2017-Sep-12 16:00N 29°48' W 092°15'2 4.3
2017-Sep-12 15:30N 29°47' W 092°13'2 3.0
2017-Sep-12 15:00N 29°47' W 092°11'1 2.7
2017-Sep-12 14:30N 29°47' W 092°10'2 3.7
2017-Sep-12 14:00N 29°47' W 092°08'3 4.3
2017-Sep-12 13:19N 29°48' W 092°05'59 4.0
2017-Sep-11 22:23N 29°36' W 090°58'4 4.5
2017-Sep-11 21:29N 29°33' W 090°55'3 4.6
2017-Sep-11 20:50N 29°32' W 090°51'2 5.0
2017-Sep-11 20:30N 29°32' W 090°49'2 4.8
2017-Sep-11 20:00N 29°32' W 090°47'2 4.1
2017-Sep-11 19:30N 29°34' W 090°45'2 3.7
2017-Sep-11 19:00N 29°34' W 090°43'2 3.9
2017-Sep-11 18:30N 29°36' W 090°43'1 2.2
2017-Sep-11 18:00N 29°37' W 090°41'0 0.2
2017-Sep-11 17:30N 29°36' W 090°41'1 2.5
2017-Sep-11 17:00N 29°36' W 090°40'1 2.9
2017-Sep-11 16:30N 29°35' W 090°38'0 0.3
2017-Sep-11 16:00N 29°35' W 090°38'0 0.7
2017-Sep-11 15:30N 29°35' W 090°38'1 2.1
2017-Sep-11 15:00N 29°35' W 090°37'2 3.5
2017-Sep-11 14:30N 29°34' W 090°35'1 2.0
2017-Sep-11 14:00N 29°34' W 090°34'1 2.8
2017-Sep-11 13:30N 29°34' W 090°32'2 3.3
2017-Sep-11 12:48N 29°34' W 090°30'1 3.3
2017-Sep-11 12:29N 29°34' W 090°28'  
Track history (hours):
 
Tides and Currents Weather Stations Pressure Air Temp Water Temp Dewpoint Dewpoint Depression Visibility Wind Speed Wind Dir Waves Ship Positions

Sandpiper

Owner: Higman Barge Lines, Inc., Orange, TX. More information available from US FCC via Universal Licensing System and Coast Guard Vessel Documentation Center.

Last reported at 2017-Sep-20 12:20 UTC. Time now 2017-Sep-21 01:34 UTC.
Position N 29°45' W 095°06'.

Length 26 m; draft 3 m.

Type: Towing. MMSI: 367512920.

Date/timePositionNaut miles runAvg speedWind from/ knotsBaromVisibWave heightAir tempDewpointWater temp
2017-Sep-20 12:20N 29°45' W 095°06'1 0.0
2017-Sep-18 14:28N 29°46' W 095°05'0 0.0
2017-Sep-18 12:21N 29°46' W 095°05'0 0.0
2017-Sep-17 05:05N 29°46' W 095°05'0 0.0
2017-Sep-16 23:52N 29°46' W 095°05'0 0.0
2017-Sep-16 22:00N 29°46' W 095°05'4 0.4
2017-Sep-16 12:24N 29°44' W 095°09'5 0.2
2017-Sep-15 10:29N 29°43' W 095°14'1 0.8
2017-Sep-15 09:20N 29°44' W 095°13'2 5.2
2017-Sep-15 08:54N 29°45' W 095°11'3 6.9
2017-Sep-15 08:26N 29°44' W 095°08'3 7.5
2017-Sep-15 08:00N 29°46' W 095°05'1 0.1
2017-Sep-14 21:37N 29°47' W 095°05'0 3.5
2017-Sep-14 21:30N 29°47' W 095°04'2 1.0
2017-Sep-14 19:07N 29°46' W 095°06'1 3.3
2017-Sep-14 18:57N 29°45' W 095°06'1 0.5
2017-Sep-14 16:53N 29°45' W 095°07'0 0.0
2017-Sep-14 16:28N 29°45' W 095°07'0 0.0
2017-Sep-14 15:58N 29°45' W 095°07'3 2.1
2017-Sep-14 14:41N 29°47' W 095°06'1 2.8
2017-Sep-14 14:28N 29°47' W 095°05'1 1.6
2017-Sep-14 13:57N 29°46' W 095°05'1 1.1
2017-Sep-14 13:04N 29°47' W 095°06'0 2.7
2017-Sep-14 12:59N 29°47' W 095°05'1 1.5
2017-Sep-14 12:26N 29°47' W 095°04'1 0.2
2017-Sep-14 08:33N 29°46' W 095°05'0 0.3
2017-Sep-14 08:30N 29°46' W 095°05'1 1.8
2017-Sep-14 07:56N 29°45' W 095°04'2 4.9
2017-Sep-14 07:30N 29°44' W 095°03'3 6.1
2017-Sep-14 07:00N 29°42' W 094°60'4 7.6
2017-Sep-14 06:30N 29°39' W 094°58'4 7.6
2017-Sep-14 06:00N 29°35' W 094°56'4 7.8
2017-Sep-14 05:30N 29°32' W 094°54'68 4.2
2017-Sep-13 13:10N 30°03' W 093°44'1 6.0
2017-Sep-13 13:00N 30°03' W 093°43'3 5.3
2017-Sep-13 12:30N 30°04' W 093°40'3 5.1
2017-Sep-13 12:00N 30°04' W 093°37'2 4.3
2017-Sep-13 11:30N 30°04' W 093°34'2 4.1
2017-Sep-13 11:00N 30°04' W 093°32'2 4.2
2017-Sep-13 10:30N 30°04' W 093°30'2 4.2
2017-Sep-13 10:00N 30°04' W 093°27'2 4.2
2017-Sep-13 09:30N 30°04' W 093°25'2 4.2
2017-Sep-13 09:00N 30°04' W 093°22'2 3.7
2017-Sep-13 08:30N 30°04' W 093°20'2 4.2
2017-Sep-13 08:00N 30°06' W 093°19'2 3.6
2017-Sep-13 07:30N 30°05' W 093°17'1 1.5
2017-Sep-13 07:00N 30°05' W 093°17'0 0.0
2017-Sep-13 06:30N 30°05' W 093°17'1 1.5
2017-Sep-13 06:00N 30°04' W 093°16'1 3.0
2017-Sep-13 05:30N 30°02' W 093°16'2 3.5
2017-Sep-13 05:00N 30°01' W 093°14'2 3.7
2017-Sep-13 04:30N 29°60' W 093°13'1 2.4
2017-Sep-13 04:00N 29°59' W 093°12'2 4.6
2017-Sep-13 03:30N 29°57' W 093°10'2 4.4
2017-Sep-13 02:59N 29°56' W 093°08'2 4.8
2017-Sep-13 02:30N 29°56' W 093°05'3 5.0
2017-Sep-13 01:56N 29°56' W 093°02'37 4.2
2017-Sep-12 17:12N 29°50' W 092°20'1 4.3
2017-Sep-12 17:00N 29°50' W 092°19'2 3.8
2017-Sep-12 16:29N 29°49' W 092°17'2 4.1
2017-Sep-12 16:00N 29°48' W 092°15'2 4.3
2017-Sep-12 15:30N 29°47' W 092°13'2 3.0
2017-Sep-12 15:00N 29°47' W 092°11'1 2.7
2017-Sep-12 14:30N 29°47' W 092°10'2 3.7
2017-Sep-12 14:00N 29°47' W 092°08'3 4.3
2017-Sep-12 13:19N 29°48' W 092°05'59 4.0
2017-Sep-11 22:23N 29°36' W 090°58'4 4.5
2017-Sep-11 21:29N 29°33' W 090°55'3 4.6
2017-Sep-11 20:50N 29°32' W 090°51'2 5.0
2017-Sep-11 20:30N 29°32' W 090°49'2 4.8
2017-Sep-11 20:00N 29°32' W 090°47'2 4.1
2017-Sep-11 19:30N 29°34' W 090°45'2 3.7
2017-Sep-11 19:00N 29°34' W 090°43'2 3.9
2017-Sep-11 18:30N 29°36' W 090°43'1 2.2
2017-Sep-11 18:00N 29°37' W 090°41'0 0.2
2017-Sep-11 17:30N 29°36' W 090°41'1 2.5
2017-Sep-11 17:00N 29°36' W 090°40'1 2.9
2017-Sep-11 16:30N 29°35' W 090°38'0 0.3
2017-Sep-11 16:00N 29°35' W 090°38'0 0.7
2017-Sep-11 15:30N 29°35' W 090°38'1 2.1
2017-Sep-11 15:00N 29°35' W 090°37'2 3.5
2017-Sep-11 14:30N 29°34' W 090°35'1 2.0
2017-Sep-11 14:00N 29°34' W 090°34'1 2.8
2017-Sep-11 13:30N 29°34' W 090°32'2 3.3
2017-Sep-11 12:48N 29°34' W 090°30'1 3.3
2017-Sep-11 12:29N 29°34' W 090°28'  

Dump ship's entire track history